Terminal Aerodrome Forecast
Issued by NWS Cleveland, OH

Home | Current Version | Previous Version | Graphics & Text | Print | Product List | Glossary On
Versions: 1 2 3 4 5 6 7 8 9 10 11 12 13 14 15 16 17 18 19
449
FTUS41 KCLE 211739
TAFTOL
TAF
KTOL 211739Z 2118/2218 18005KT 2SM BR OVC003
      TEMPO 2120/2123 3SM BR OVC006
     FM220600 15004KT 1SM BR VCSH OVC003
      TEMPO 2208/2212 3SM -SHRA OVC006
     FM221200 17005KT 2SM BR OVC010
     FM221500 17005KT 5SM BR OVC020=

USA.gov is the U.S. government's official web portal to all federal, state and local government web resources and services.